Time;durP1;ratioP1;P1;durP2;ratioP2;P2;SDS_P1;SDS_P2;PMS_P1;PMS_P2;Temp;Humidity;BMP_temperature;BMP_pressure;BME280_temperature;BME280_humidity;BME280_pressure;Samples;Min_cycle;Max_cycle;Signal;HPM_P1;HPM_P2
2022/07/01 00:00:34;;;;;;;5.80;5.03;;;17.00;77.50;;;;;;5043450;28;20021;-68
2022/07/01 00:03:00;;;;;;;6.30;5.18;;;17.00;77.40;;;;;;5037813;28;20557;-68
2022/07/01 00:05:25;;;;;;;6.20;5.60;;;17.00;77.30;;;;;;5040355;28;20439;-67
2022/07/01 00:07:51;;;;;;;6.55;5.78;;;17.00;77.20;;;;;;5038790;28;20033;-66
2022/07/01 00:10:16;;;;;;;6.00;5.40;;;17.00;77.20;;;;;;5038033;28;20074;-67
2022/07/01 00:12:42;;;;;;;5.93;5.15;;;17.00;77.20;;;;;;5040655;28;20021;-68
2022/07/01 00:15:09;;;;;;;5.45;4.47;;;17.00;77.10;;;;;;5037538;28;20014;-69
2022/07/01 00:17:34;;;;;;;5.38;4.88;;;17.00;77.00;;;;;;5038550;28;20087;-67
2022/07/01 00:20:01;;;;;;;5.28;4.78;;;17.00;77.10;;;;;;5038581;28;20479;-68
2022/07/01 00:22:27;;;;;;;6.88;6.13;;;17.00;77.00;;;;;;5038231;28;20032;-69
2022/07/01 00:24:53;;;;;;;6.38;5.20;;;17.00;76.90;;;;;;5050029;28;20036;-69
2022/07/01 00:27:19;;;;;;;5.30;4.28;;;17.00;76.90;;;;;;5046364;28;20022;-69
2022/07/01 00:29:44;;;;;;;5.93;4.80;;;17.00;76.90;;;;;;5031224;28;20049;-68
2022/07/01 00:32:10;;;;;;;5.95;5.35;;;16.90;76.90;;;;;;5046564;28;20522;-67
2022/07/01 00:34:37;;;;;;;4.50;3.90;;;16.90;76.90;;;;;;5032242;28;20025;-67
2022/07/01 00:37:03;;;;;;;5.20;4.70;;;16.90;76.80;;;;;;5045346;28;20018;-67
2022/07/01 00:39:31;;;;;;;5.35;4.85;;;16.90;76.80;;;;;;5048559;28;20028;-66
2022/07/01 00:42:00;;;;;;;5.93;5.32;;;16.80;76.80;;;;;;5030287;28;20392;-67
2022/07/01 00:44:26;;;;;;;6.78;5.47;;;16.80;76.90;;;;;;5040650;28;20449;-68
2022/07/01 00:46:52;;;;;;;7.97;7.05;;;16.80;77.10;;;;;;5030446;28;20097;-65
2022/07/01 00:49:18;;;;;;;6.72;6.10;;;16.70;77.40;;;;;;5030064;28;20057;-67
2022/07/01 00:51:44;;;;;;;6.65;5.95;;;16.70;77.50;;;;;;5046951;28;20048;-67
2022/07/01 00:54:10;;;;;;;6.63;5.85;;;16.70;77.50;;;;;;5047101;28;20490;-67
2022/07/01 00:56:36;;;;;;;6.70;6.10;;;16.70;78.10;;;;;;5032707;28;20030;-68
2022/07/01 00:59:02;;;;;;;6.65;5.93;;;16.70;77.50;;;;;;5035186;28;20018;-69
2022/07/01 01:01:28;;;;;;;5.68;5.07;;;16.70;77.70;;;;;;5041856;28;20126;-67
2022/07/01 01:03:54;;;;;;;6.80;5.88;;;16.70;77.70;;;;;;5037891;28;20044;-68
2022/07/01 01:06:19;;;;;;;6.82;6.18;;;16.70;77.70;;;;;;5029575;28;20029;-68
2022/07/01 01:08:46;;;;;;;6.97;6.28;;;16.70;77.70;;;;;;5038218;28;20113;-67
2022/07/01 01:11:13;;;;;;;5.82;5.15;;;16.70;77.80;;;;;;5048846;28;20029;-68
2022/07/01 01:13:39;;;;;;;10.27;8.93;;;16.70;77.80;;;;;;5040400;28;20036;-70
2022/07/01 01:16:04;;;;;;;10.43;8.38;;;16.70;78.00;;;;;;5052150;28;20532;-69
2022/07/01 01:18:30;;;;;;;9.63;7.63;;;16.70;78.20;;;;;;5047325;28;20079;-69
2022/07/01 01:20:56;;;;;;;7.20;6.50;;;16.70;78.40;;;;;;5033535;28;20022;-70
2022/07/01 01:23:21;;;;;;;10.02;8.80;;;16.70;78.40;;;;;;5046582;28;20060;-67
2022/07/01 01:25:47;;;;;;;11.63;9.73;;;16.70;78.40;;;;;;5033736;28;20033;-69
2022/07/01 01:28:13;;;;;;;12.13;10.77;;;16.70;78.50;;;;;;5035733;28;20037;-68
2022/07/01 01:30:38;;;;;;;11.70;10.50;;;16.70;78.50;;;;;;5038660;28;20040;-70
2022/07/01 01:33:04;;;;;;;16.52;14.73;;;16.70;78.50;;;;;;5042972;28;20039;-69
2022/07/01 01:35:31;;;;;;;14.05;12.57;;;16.60;78.90;;;;;;5047975;28;20021;-67
2022/07/01 01:37:56;;;;;;;13.48;11.80;;;16.60;79.10;;;;;;5033549;28;20026;-69
2022/07/01 01:40:22;;;;;;;13.60;12.05;;;16.60;79.00;;;;;;5041135;28;20083;-69
2022/07/01 01:42:48;;;;;;;14.02;10.73;;;16.60;79.00;;;;;;5033922;28;20434;-68
2022/07/01 01:45:13;;;;;;;14.93;11.88;;;16.70;78.90;;;;;;5035715;28;20543;-69
2022/07/01 01:47:39;;;;;;;14.40;12.82;;;16.70;78.90;;;;;;5043319;28;20785;-70
2022/07/01 01:50:06;;;;;;;12.68;11.02;;;16.70;78.80;;;;;;5033305;28;20116;-70
2022/07/01 01:52:32;;;;;;;15.55;13.43;;;16.70;78.70;;;;;;5051099;28;20116;-69
2022/07/01 01:54:58;;;;;;;16.75;14.80;;;16.70;78.80;;;;;;5051430;28;20053;-69
2022/07/01 01:57:24;;;;;;;15.52;12.95;;;16.60;78.90;;;;;;5044786;28;20112;-69
2022/07/01 01:59:50;;;;;;;18.30;15.05;;;16.60;78.80;;;;;;5032844;28;20112;-69
2022/07/01 02:02:16;;;;;;;14.77;12.65;;;16.60;78.90;;;;;;5047936;28;20035;-69
2022/07/01 02:04:42;;;;;;;16.63;14.93;;;16.60;78.80;;;;;;5047634;28;20036;-69
2022/07/01 02:07:07;;;;;;;18.50;16.42;;;16.60;78.90;;;;;;5051918;28;20124;-69
2022/07/01 02:09:33;;;;;;;19.45;16.17;;;16.50;79.10;;;;;;5050787;28;20033;-68
2022/07/01 02:11:59;;;;;;;19.92;17.35;;;16.50;79.20;;;;;;5052201;28;20025;-66
2022/07/01 02:14:24;;;;;;;17.02;15.23;;;16.40;79.30;;;;;;5046634;28;20083;-70
2022/07/01 02:16:50;;;;;;;15.05;13.27;;;16.40;79.30;;;;;;5033148;28;20506;-69
2022/07/01 02:19:15;;;;;;;15.93;14.07;;;16.40;79.30;;;;;;5035216;28;20438;-67
2022/07/01 02:21:41;;;;;;;15.60;13.95;;;16.40;79.30;;;;;;5032930;28;20100;-64
2022/07/01 02:24:07;;;;;;;15.98;14.27;;;16.40;79.20;;;;;;5035854;28;20032;-67
2022/07/01 02:26:33;;;;;;;15.90;14.20;;;16.40;79.20;;;;;;5052420;28;20549;-68
2022/07/01 02:28:58;;;;;;;16.73;14.48;;;16.50;79.10;;;;;;5049646;28;20036;-68
2022/07/01 02:31:24;;;;;;;16.73;14.70;;;16.40;79.10;;;;;;5049359;28;20581;-68
2022/07/01 02:33:50;;;;;;;13.35;11.48;;;16.40;79.10;;;;;;5052336;28;20122;-67
2022/07/01 02:36:15;;;;;;;13.68;12.10;;;16.40;79.10;;;;;;5051350;28;20032;-68
2022/07/01 02:38:41;;;;;;;17.50;15.70;;;16.40;79.00;;;;;;5045356;28;20538;-68
2022/07/01 02:41:06;;;;;;;19.40;16.30;;;16.30;79.20;;;;;;5045491;28;20403;-68
2022/07/01 02:43:32;;;;;;;16.55;14.55;;;16.30;79.20;;;;;;5031973;28;20489;-69
2022/07/01 02:45:58;;;;;;;17.45;14.60;;;16.30;79.20;;;;;;5041572;28;20120;-68
2022/07/01 02:48:24;;;;;;;18.58;16.67;;;16.30;79.10;;;;;;5031934;28;20030;-69
2022/07/01 02:50:49;;;;;;;17.70;15.85;;;16.30;79.10;;;;;;5043743;28;20035;-68
2022/07/01 02:53:15;;;;;;;15.20;13.57;;;16.20;79.00;;;;;;5037221;28;20060;-68
2022/07/01 02:55:41;;;;;;;14.98;13.38;;;16.30;79.00;;;;;;5035376;28;20029;-67
2022/07/01 02:58:06;;;;;;;14.07;12.63;;;16.30;78.80;;;;;;5051075;28;20052;-66
2022/07/01 03:00:32;;;;;;;14.90;13.00;;;16.30;78.70;;;;;;5038565;28;20036;-66
2022/07/01 03:02:58;;;;;;;17.05;15.25;;;16.30;78.60;;;;;;5044057;28;20032;-68
2022/07/01 03:05:23;;;;;;;16.85;15.05;;;16.20;78.60;;;;;;5039591;28;20033;-68
2022/07/01 03:07:49;;;;;;;14.32;12.25;;;16.20;78.80;;;;;;5037992;28;20026;-67
2022/07/01 03:10:14;;;;;;;16.65;12.60;;;16.10;78.80;;;;;;5031268;28;20029;-67
2022/07/01 03:12:40;;;;;;;11.38;10.18;;;16.10;78.70;;;;;;5042882;28;20089;-67
2022/07/01 03:15:07;;;;;;;12.90;11.50;;;16.10;78.80;;;;;;5050425;28;20037;-66
2022/07/01 03:17:35;;;;;;;14.88;12.60;;;16.00;78.80;;;;;;5042362;28;20021;-67
2022/07/01 03:20:03;;;;;;;16.10;13.52;;;16.00;78.80;;;;;;5048463;28;20032;-67
2022/07/01 03:22:31;;;;;;;14.77;13.15;;;16.00;79.00;;;;;;5038930;28;20029;-66
2022/07/01 03:24:57;;;;;;;13.93;11.85;;;16.00;78.90;;;;;;5043254;28;20041;-67
2022/07/01 03:27:24;;;;;;;15.43;12.98;;;16.00;78.90;;;;;;5044250;28;20021;-67
2022/07/01 03:29:50;;;;;;;15.13;13.25;;;16.00;78.90;;;;;;5030831;28;20164;-67
2022/07/01 03:32:16;;;;;;;14.88;13.32;;;16.00;78.90;;;;;;5032442;28;20454;-68
2022/07/01 03:34:44;;;;;;;17.30;14.52;;;16.00;78.90;;;;;;5035356;28;20021;-69
2022/07/01 03:37:11;;;;;;;17.35;15.48;;;16.00;79.00;;;;;;5043581;28;20084;-68
2022/07/01 03:39:38;;;;;;;24.45;21.42;;;16.00;79.20;;;;;;5031007;28;20035;-68
2022/07/01 03:42:04;;;;;;;19.30;16.17;;;15.90;79.40;;;;;;5043172;28;20030;-67
2022/07/01 03:44:30;;;;;;;24.45;19.77;;;15.90;79.60;;;;;;5030948;28;20113;-70
2022/07/01 03:46:57;;;;;;;17.15;14.00;;;15.90;79.70;;;;;;5031920;28;20117;-70
2022/07/01 03:49:23;;;;;;;16.63;14.75;;;15.80;79.70;;;;;;5042427;28;20025;-69
2022/07/01 03:51:49;;;;;;;17.17;14.32;;;15.80;79.70;;;;;;5037030;28;20074;-69
2022/07/01 03:54:29;;;;;;;16.15;14.02;;;15.80;79.60;;;;;;5050024;28;20021;-69
2022/07/01 03:57:15;;;;;;;17.98;14.45;;;15.80;79.40;;;;;;5050007;28;20021;-68
2022/07/01 03:59:41;;;;;;;14.82;13.05;;;15.80;79.40;;;;;;5030623;28;20065;-69
2022/07/01 04:02:07;;;;;;;16.05;13.68;;;15.80;79.40;;;;;;5035646;28;20554;-70
2022/07/01 04:04:34;;;;;;;17.17;15.35;;;15.80;79.40;;;;;;5030808;28;20057;-69
2022/07/01 04:07:01;;;;;;;19.80;17.70;;;15.80;79.40;;;;;;5030973;28;20132;-69
2022/07/01 04:09:29;;;;;;;16.92;14.77;;;15.80;79.80;;;;;;5049039;28;20031;-70
2022/07/01 04:11:55;;;;;;;20.63;15.65;;;15.80;79.90;;;;;;5040506;28;20037;-70
2022/07/01 04:14:21;;;;;;;17.40;14.85;;;15.80;80.00;;;;;;5046937;28;20096;-70
2022/07/01 04:16:47;;;;;;;21.00;16.88;;;15.80;79.90;;;;;;5045951;28;20050;-68
2022/07/01 04:19:17;;;;;;;18.98;15.85;;;15.80;80.10;;;;;;5035578;28;20068;-67
2022/07/01 04:24:28;;;;;;;17.42;15.40;;;15.80;80.50;;;;;;5034651;28;20136;-69
2022/07/01 04:26:54;;;;;;;17.92;15.00;;;15.80;80.50;;;;;;5031640;28;20032;-69
2022/07/01 04:29:19;;;;;;;21.17;17.88;;;15.80;80.60;;;;;;5044167;28;20029;-68
2022/07/01 04:31:46;;;;;;;22.33;18.60;;;15.80;80.70;;;;;;5040932;28;20472;-68
2022/07/01 04:34:12;;;;;;;15.60;13.50;;;15.80;80.80;;;;;;5039929;28;20104;-68
2022/07/01 04:36:38;;;;;;;15.02;12.80;;;15.90;80.70;;;;;;5049318;28;20104;-68
2022/07/01 04:39:04;;;;;;;19.60;16.63;;;15.90;80.40;;;;;;5041830;28;20043;-67
2022/07/01 04:44:15;;;;;;;21.85;17.08;;;15.90;80.60;;;;;;5041353;28;20064;-69
2022/07/01 04:46:40;;;;;;;24.40;18.55;;;15.90;80.80;;;;;;5043483;28;20496;-69
2022/07/01 04:49:07;;;;;;;18.27;13.98;;;15.90;81.00;;;;;;5035117;28;20063;-69
2022/07/01 04:51:34;;;;;;;19.38;15.25;;;15.90;81.00;;;;;;5031294;28;20053;-68
2022/07/01 04:54:04;;;;;;;12.32;10.70;;;15.90;80.80;;;;;;5033640;28;20108;-66
2022/07/01 04:56:29;;;;;;;19.50;13.55;;;16.00;80.80;;;;;;5038621;28;20030;-69
2022/07/01 04:58:56;;;;;;;21.02;15.43;;;16.00;80.60;;;;;;5041192;28;20374;-69
2022/07/01 05:01:22;;;;;;;23.63;19.15;;;16.00;80.60;;;;;;5038771;28;20457;-69
2022/07/01 05:03:48;;;;;;;22.77;17.25;;;16.00;80.70;;;;;;5034594;28;20511;-69
2022/07/01 05:06:13;;;;;;;17.88;13.85;;;16.00;80.80;;;;;;5035048;28;20029;-69
2022/07/01 05:08:39;;;;;;;24.02;18.52;;;16.00;80.70;;;;;;5034610;28;20030;-68
2022/07/01 05:11:04;;;;;;;18.95;15.30;;;16.00;80.80;;;;;;5049168;28;20061;-69
2022/07/01 05:13:30;;;;;;;15.68;12.27;;;16.00;80.80;;;;;;5045360;28;20120;-70
2022/07/01 05:15:55;;;;;;;18.25;13.82;;;16.00;80.60;;;;;;5049748;28;20150;-68
2022/07/01 05:23:49;;;;;;;18.63;13.80;;;16.00;80.30;;;;;;5033216;28;20110;-70
2022/07/01 05:26:17;;;;;;;14.38;12.07;;;16.10;80.20;;;;;;5030953;28;20030;-70
2022/07/01 05:28:46;;;;;;;14.63;11.45;;;16.10;80.00;;;;;;5034592;28;20022;-69
2022/07/01 05:31:12;;;;;;;16.33;11.15;;;16.20;80.00;;;;;;5049115;28;20033;-67
2022/07/01 05:33:37;;;;;;;17.52;13.35;;;16.20;79.80;;;;;;5031765;28;20523;-69
2022/07/01 05:36:03;;;;;;;16.40;12.40;;;16.30;79.70;;;;;;5048209;28;20391;-69
2022/07/01 05:38:29;;;;;;;14.10;11.43;;;16.20;79.80;;;;;;5038033;28;20112;-70
2022/07/01 05:40:54;;;;;;;14.93;11.70;;;16.20;79.70;;;;;;5043630;28;20029;-70
2022/07/01 05:43:20;;;;;;;12.98;9.90;;;16.30;79.70;;;;;;5036959;28;20568;-69
2022/07/01 05:45:46;;;;;;;14.80;10.48;;;16.30;79.50;;;;;;5044999;28;20056;-69
2022/07/01 05:48:12;;;;;;;12.75;10.07;;;16.40;79.30;;;;;;5046418;28;20103;-69
2022/07/01 05:50:39;;;;;;;15.93;10.73;;;16.40;79.10;;;;;;5043936;28;20024;-69
2022/07/01 05:53:05;;;;;;;13.88;10.88;;;16.40;79.10;;;;;;5038883;28;20025;-69
2022/07/01 05:55:30;;;;;;;14.60;10.80;;;16.50;78.90;;;;;;5035466;28;20032;-68
2022/07/01 05:57:56;;;;;;;15.35;11.23;;;16.40;78.70;;;;;;5036411;28;20025;-69
2022/07/01 06:00:21;;;;;;;14.40;11.20;;;16.40;78.70;;;;;;5044445;28;20135;-68
2022/07/01 06:02:47;;;;;;;18.27;13.18;;;16.50;78.70;;;;;;5054210;28;20082;-67
2022/07/01 06:05:13;;;;;;;14.00;10.35;;;16.50;78.50;;;;;;5052996;28;20029;-68
2022/07/01 06:07:40;;;;;;;16.48;11.73;;;16.50;78.40;;;;;;5053430;28;20099;-69
2022/07/01 06:10:07;;;;;;;16.50;11.82;;;16.50;78.40;;;;;;5052635;28;20032;-70
2022/07/01 06:12:32;;;;;;;17.73;12.95;;;16.50;78.30;;;;;;5039322;28;20495;-66
2022/07/01 06:14:58;;;;;;;16.70;12.75;;;16.50;78.30;;;;;;5033594;28;20095;-67
2022/07/01 06:17:24;;;;;;;17.63;12.98;;;16.60;78.30;;;;;;5039326;28;20033;-67
2022/07/01 06:19:49;;;;;;;14.02;11.13;;;16.60;78.20;;;;;;5040009;28;20029;-68
2022/07/01 06:22:17;;;;;;;24.25;16.50;;;16.60;78.10;;;;;;5041824;28;20028;-67
2022/07/01 06:24:44;;;;;;;17.73;13.05;;;16.60;78.10;;;;;;5041982;28;20049;-68
2022/07/01 06:27:10;;;;;;;15.40;11.43;;;16.60;78.20;;;;;;5040044;28;20104;-68
2022/07/01 06:29:36;;;;;;;16.88;11.77;;;16.60;78.70;;;;;;5047096;28;20497;-69
2022/07/01 06:32:03;;;;;;;15.45;11.32;;;16.70;77.90;;;;;;5038317;28;20048;-69
2022/07/01 06:34:28;;;;;;;13.07;10.55;;;16.70;77.80;;;;;;5037344;28;20033;-68
2022/07/01 06:36:55;;;;;;;18.30;13.40;;;16.80;77.80;;;;;;5045985;28;20086;-68
2022/07/01 06:39:21;;;;;;;15.43;11.18;;;16.80;77.70;;;;;;5047047;28;20100;-67
2022/07/01 06:41:47;;;;;;;16.42;11.43;;;16.80;77.60;;;;;;5042569;28;20620;-69
2022/07/01 06:44:13;;;;;;;13.13;10.00;;;16.80;77.60;;;;;;5043367;28;20033;-69
2022/07/01 06:46:38;;;;;;;17.50;13.75;;;16.80;77.60;;;;;;5046981;28;20025;-69
2022/07/01 06:49:04;;;;;;;17.15;13.40;;;16.80;77.60;;;;;;5050248;28;20376;-66
2022/07/01 06:51:30;;;;;;;20.38;14.85;;;16.80;77.70;;;;;;5050420;28;20487;-68
2022/07/01 06:53:56;;;;;;;16.08;11.95;;;16.70;77.80;;;;;;5040705;28;20029;-69
2022/07/01 06:56:22;;;;;;;17.83;12.55;;;16.70;77.90;;;;;;5038299;28;20017;-69
2022/07/01 06:58:47;;;;;;;16.70;12.85;;;16.80;77.70;;;;;;5044482;28;20043;-70
2022/07/01 07:01:13;;;;;;;17.48;12.63;;;16.80;77.50;;;;;;5040704;28;20647;-71
2022/07/01 07:03:38;;;;;;;17.20;11.10;;;16.90;77.40;;;;;;5043992;28;20442;-70
2022/07/01 07:06:04;;;;;;;19.27;13.82;;;16.90;77.30;;;;;;5035854;28;20687;-68
2022/07/01 07:08:32;;;;;;;18.92;13.75;;;16.90;77.00;;;;;;5051496;28;20033;-69
2022/07/01 07:10:58;;;;;;;23.05;16.90;;;16.80;77.00;;;;;;5049450;28;20032;-70
2022/07/01 07:13:24;;;;;;;20.30;13.77;;;16.80;76.80;;;;;;5033687;28;20171;-68
2022/07/01 07:15:50;;;;;;;19.25;13.13;;;16.70;76.90;;;;;;5049455;28;20116;-68
2022/07/01 07:18:16;;;;;;;14.55;10.13;;;17.00;76.90;;;;;;5045264;28;20033;-69
2022/07/01 07:20:41;;;;;;;18.48;12.82;;;17.30;76.50;;;;;;5048041;28;20039;-69
2022/07/01 07:23:07;;;;;;;16.05;11.27;;;17.40;75.40;;;;;;5042592;28;20044;-69
2022/07/01 07:25:33;;;;;;;13.82;10.20;;;17.50;75.10;;;;;;5044808;28;20029;-68
2022/07/01 07:27:58;;;;;;;16.35;11.55;;;17.80;75.00;;;;;;5044966;28;20043;-68
2022/07/01 07:30:24;;;;;;;18.05;13.10;;;18.00;74.50;;;;;;5043218;28;20486;-69
2022/07/01 07:32:49;;;;;;;15.65;11.25;;;18.30;73.80;;;;;;5044267;28;20120;-69
2022/07/01 07:35:15;;;;;;;16.40;11.70;;;18.50;73.40;;;;;;5046472;28;20163;-67
2022/07/01 07:37:41;;;;;;;16.23;12.23;;;18.70;72.50;;;;;;5044514;28;20094;-68
2022/07/01 07:40:09;;;;;;;18.23;13.75;;;18.90;72.00;;;;;;5048121;28;20490;-68
2022/07/01 07:42:36;;;;;;;19.17;13.85;;;18.80;71.00;;;;;;5045624;28;20082;-69
2022/07/01 07:45:09;;;;;;;14.85;11.18;;;18.80;70.50;;;;;;5042481;28;20115;-69
2022/07/01 07:47:35;;;;;;;13.73;9.80;;;18.70;70.50;;;;;;5045703;28;20048;-68
2022/07/01 07:50:01;;;;;;;16.02;11.85;;;18.80;71.40;;;;;;5044625;28;20029;-70
2022/07/01 07:52:26;;;;;;;11.70;9.05;;;18.90;70.70;;;;;;5046523;28;20021;-69
2022/07/01 07:54:52;;;;;;;13.23;10.50;;;19.10;70.70;;;;;;5043336;28;20029;-67
2022/07/01 07:57:17;;;;;;;15.02;11.13;;;19.20;70.30;;;;;;5041908;28;20021;-69
2022/07/01 07:59:43;;;;;;;14.50;10.80;;;19.40;69.80;;;;;;5044640;28;20029;-71
2022/07/01 08:02:08;;;;;;;12.65;9.63;;;19.40;69.40;;;;;;5044965;28;20029;-69
2022/07/01 08:04:34;;;;;;;12.48;8.30;;;19.40;69.20;;;;;;5048398;28;20025;-70
2022/07/01 08:07:00;;;;;;;19.13;13.55;;;19.40;69.40;;;;;;5050872;28;20038;-68
2022/07/01 08:09:26;;;;;;;13.43;10.95;;;19.40;68.60;;;;;;5045763;28;20518;-69
2022/07/01 08:11:52;;;;;;;14.20;10.18;;;19.20;68.60;;;;;;5051186;28;20040;-68
2022/07/01 08:14:17;;;;;;;11.35;9.65;;;19.20;68.50;;;;;;5046712;28;20051;-69
2022/07/01 08:16:43;;;;;;;12.10;9.90;;;19.40;69.00;;;;;;5052851;28;20017;-67
2022/07/01 08:19:09;;;;;;;11.98;8.25;;;19.40;68.00;;;;;;5048740;28;20029;-70
2022/07/01 08:21:35;;;;;;;12.45;9.43;;;19.50;67.90;;;;;;5045380;28;20053;-70
2022/07/01 08:24:00;;;;;;;12.68;9.20;;;19.60;67.90;;;;;;5044395;28;20036;-68
2022/07/01 08:26:26;;;;;;;11.70;8.80;;;19.80;67.20;;;;;;5047956;28;20023;-69
2022/07/01 08:28:52;;;;;;;10.50;7.18;;;19.80;66.10;;;;;;5050892;28;20054;-68
2022/07/01 08:31:17;;;;;;;7.55;5.20;;;19.90;66.20;;;;;;5046809;28;20121;-70
2022/07/01 08:33:43;;;;;;;8.40;5.70;;;19.90;66.10;;;;;;5045026;28;20021;-70
2022/07/01 08:36:09;;;;;;;7.00;5.10;;;19.90;66.10;;;;;;5048979;28;20032;-70
2022/07/01 08:38:36;;;;;;;7.03;4.65;;;20.00;66.20;;;;;;5047860;28;20033;-70
2022/07/01 08:41:04;;;;;;;5.72;3.90;;;20.10;66.10;;;;;;5041535;28;20578;-70
2022/07/01 08:43:30;;;;;;;6.60;4.07;;;20.10;65.40;;;;;;5043187;28;20067;-70
2022/07/01 08:45:58;;;;;;;6.47;3.40;;;20.00;65.00;;;;;;5049334;28;20477;-68
2022/07/01 08:48:24;;;;;;;4.75;2.97;;;20.00;64.60;;;;;;5045516;28;20025;-69
2022/07/01 08:50:50;;;;;;;5.93;3.10;;;20.00;64.40;;;;;;5049136;28;20043;-67
2022/07/01 08:53:15;;;;;;;6.88;3.80;;;20.20;64.30;;;;;;5042969;28;20055;-68
2022/07/01 08:58:27;;;;;;;5.18;2.75;;;20.50;63.60;;;;;;5041238;28;20089;-68
2022/07/01 09:01:11;;;;;;;3.95;2.30;;;20.70;62.70;;;;;;5045608;28;20663;-69
2022/07/01 09:03:36;;;;;;;3.15;2.00;;;20.80;62.80;;;;;;5041766;28;20029;-69
2022/07/01 09:06:02;;;;;;;3.97;2.47;;;21.00;62.50;;;;;;5047637;28;20037;-69
2022/07/01 09:08:28;;;;;;;3.25;2.00;;;21.10;60.80;;;;;;5049113;28;20034;-68
2022/07/01 09:10:53;;;;;;;2.83;1.55;;;21.20;60.70;;;;;;5045877;28;20032;-68
2022/07/01 09:13:19;;;;;;;4.60;1.80;;;21.30;60.70;;;;;;5042416;28;20399;-70
2022/07/01 09:15:44;;;;;;;5.25;2.70;;;21.40;60.20;;;;;;5046083;28;20044;-68
2022/07/01 09:18:12;;;;;;;4.95;2.30;;;21.30;58.20;;;;;;5048772;28;20403;-68
2022/07/01 09:20:43;;;;;;;2.75;1.58;;;21.20;58.60;;;;;;5047847;28;20036;-70
2022/07/01 09:23:10;;;;;;;2.67;1.27;;;21.10;59.10;;;;;;5047334;28;20044;-69
2022/07/01 09:25:56;;;;;;;3.47;1.50;;;21.00;59.30;;;;;;5044243;28;20300;-69
2022/07/01 09:28:23;;;;;;;4.32;1.67;;;21.10;59.80;;;;;;5047151;28;20044;-68
2022/07/01 09:30:54;;;;;;;4.50;1.50;;;21.30;59.60;;;;;;5039754;28;20600;-68
2022/07/01 09:33:24;;;;;;;4.40;1.80;;;21.50;59.20;;;;;;5044005;28;20020;-70
2022/07/01 09:35:50;;;;;;;2.92;1.45;;;21.50;58.90;;;;;;5046332;28;20084;-69
2022/07/01 09:38:20;;;;;;;1.75;1.45;;;21.50;58.40;;;;;;5050825;28;20029;-69
2022/07/01 09:40:53;;;;;;;1.75;1.10;;;21.50;58.40;;;;;;5053208;28;20116;-68
2022/07/01 09:43:26;;;;;;;3.70;1.40;;;21.60;58.30;;;;;;5047053;28;20036;-69
2022/07/01 09:45:59;;;;;;;1.98;1.27;;;21.70;57.70;;;;;;5050331;28;20025;-70
2022/07/01 09:48:40;;;;;;;3.40;1.70;;;21.80;57.30;;;;;;5048910;28;20037;-69
2022/07/01 09:51:07;;;;;;;2.42;1.40;;;21.80;56.80;;;;;;5050243;28;20541;-69
2022/07/01 09:53:33;;;;;;;3.20;1.20;;;21.60;56.20;;;;;;5048680;28;20033;-69
2022/07/01 09:55:59;;;;;;;2.13;1.10;;;21.50;56.50;;;;;;5051060;28;20732;-70
2022/07/01 09:58:25;;;;;;;4.18;1.50;;;21.40;56.70;;;;;;5052691;28;20037;-70
2022/07/01 10:00:52;;;;;;;2.75;1.20;;;21.30;56.90;;;;;;5050578;28;20043;-69
2022/07/01 10:03:19;;;;;;;1.60;1.10;;;21.30;57.00;;;;;;5050067;28;21306;-67
2022/07/01 10:05:50;;;;;;;2.33;1.20;;;21.30;57.10;;;;;;5050498;28;20034;-69
2022/07/01 10:08:36;;;;;;;1.63;1.17;;;21.40;56.60;;;;;;5051923;28;20037;-69
2022/07/01 10:11:25;;;;;;;1.65;1.20;;;21.50;56.50;;;;;;5044418;28;20045;-69
2022/07/01 10:13:51;;;;;;;2.83;1.30;;;21.40;56.20;;;;;;5044392;28;20030;-68
2022/07/01 10:16:19;;;;;;;1.75;1.40;;;21.40;56.10;;;;;;5051037;28;20109;-68
2022/07/01 10:18:44;;;;;;;2.40;1.40;;;21.30;55.90;;;;;;5050220;28;20022;-69
2022/07/01 10:21:29;;;;;;;2.17;1.20;;;21.10;55.30;;;;;;5049544;28;20048;-67
2022/07/01 10:24:16;;;;;;;1.90;0.85;;;21.10;55.30;;;;;;5050593;28;20037;-69
2022/07/01 10:26:42;;;;;;;1.17;0.90;;;21.30;55.60;;;;;;5050572;28;20388;-68
2022/07/01 10:29:27;;;;;;;2.33;1.20;;;21.50;55.00;;;;;;5051137;28;20034;-67
2022/07/01 10:31:53;;;;;;;2.78;0.90;;;21.70;54.30;;;;;;5052233;28;20061;-69
2022/07/01 10:34:19;;;;;;;3.15;1.10;;;22.00;54.30;;;;;;5047485;28;20055;-68
2022/07/01 10:36:44;;;;;;;2.08;1.00;;;22.10;52.30;;;;;;5053746;28;20017;-67
2022/07/01 10:39:17;;;;;;;2.00;0.80;;;22.00;51.80;;;;;;5045818;28;20025;-66
2022/07/01 10:41:51;;;;;;;2.05;0.80;;;22.10;52.80;;;;;;5050711;28;20078;-68
2022/07/01 10:44:17;;;;;;;1.40;1.00;;;22.20;51.60;;;;;;5047257;28;20048;-68
2022/07/01 10:46:58;;;;;;;2.15;0.85;;;22.30;50.90;;;;;;5042089;28;20025;-68
2022/07/01 10:49:36;;;;;;;1.23;0.85;;;22.40;51.20;;;;;;5049165;28;20036;-68
2022/07/01 10:52:15;;;;;;;3.03;1.20;;;22.30;50.60;;;;;;5036855;28;20535;-69
2022/07/01 10:54:40;;;;;;;2.72;0.98;;;22.30;50.20;;;;;;5048240;28;20071;-69
2022/07/01 10:57:23;;;;;;;1.92;1.10;;;22.30;50.40;;;;;;5046123;28;20021;-69
2022/07/01 10:59:59;;;;;;;1.65;1.23;;;22.30;50.60;;;;;;5049545;28;20060;-69
2022/07/01 11:02:32;;;;;;;3.65;1.30;;;22.40;50.40;;;;;;5053541;28;20063;-68
2022/07/01 11:05:00;;;;;;;3.08;1.20;;;22.30;49.70;;;;;;5049078;28;20112;-68
2022/07/01 11:07:31;;;;;;;1.35;0.80;;;22.20;50.30;;;;;;5047422;28;20032;-69
2022/07/01 11:09:58;;;;;;;2.47;1.05;;;22.20;50.90;;;;;;5046795;28;20017;-69
2022/07/01 11:12:24;;;;;;;1.88;0.90;;;22.40;50.80;;;;;;5051464;28;20029;-69
2022/07/01 11:14:51;;;;;;;2.45;1.00;;;22.50;49.60;;;;;;5050280;28;20024;-68
2022/07/01 11:17:17;;;;;;;2.00;1.02;;;22.30;48.30;;;;;;5047182;28;20028;-70
2022/07/01 11:19:50;;;;;;;1.65;1.05;;;22.30;48.90;;;;;;5043935;28;20078;-70
2022/07/01 11:22:24;;;;;;;1.70;0.98;;;22.60;49.30;;;;;;5047261;28;20043;-68
2022/07/01 11:24:58;;;;;;;3.08;1.00;;;22.80;48.90;;;;;;5048970;28;20079;-69
2022/07/01 11:27:24;;;;;;;6.13;3.53;;;22.80;48.00;;;;;;5050493;28;20716;-68
2022/07/01 11:30:20;;;;;;;4.13;3.15;;;22.70;48.30;;;;;;5045182;28;20028;-67
2022/07/01 11:32:48;;;;;;;3.10;2.00;;;22.80;48.50;;;;;;5047244;28;20096;-69
2022/07/01 11:41:05;;;;;;;2.50;1.05;;;22.70;48.50;;;;;;5048277;28;20514;-68
2022/07/01 11:43:34;;;;;;;2.78;1.20;;;22.80;48.60;;;;;;5047764;28;20100;-68
2022/07/01 11:46:01;;;;;;;3.58;1.00;;;22.90;48.40;;;;;;5043630;28;20025;-69
2022/07/01 11:48:34;;;;;;;1.88;0.88;;;23.10;48.00;;;;;;5043112;28;20037;-68
2022/07/01 11:51:05;;;;;;;1.88;0.90;;;23.20;47.30;;;;;;5046903;28;20078;-69
2022/07/01 11:53:32;;;;;;;2.05;0.93;;;23.20;46.80;;;;;;5048382;28;20144;-69
2022/07/01 11:55:58;;;;;;;1.88;0.90;;;23.20;46.70;;;;;;5047942;28;20635;-68
2022/07/01 11:58:24;;;;;;;2.67;0.98;;;23.30;46.60;;;;;;5045157;28;20017;-69
2022/07/01 12:00:49;;;;;;;2.10;0.75;;;23.30;45.90;;;;;;5047822;28;20103;-68
2022/07/01 12:03:30;;;;;;;1.35;1.05;;;23.40;45.90;;;;;;5044068;28;20124;-68
2022/07/01 12:05:56;;;;;;;2.28;0.75;;;23.50;46.10;;;;;;5046988;28;20035;-68
2022/07/01 12:08:22;;;;;;;1.30;0.80;;;23.70;45.70;;;;;;5048277;28;20028;-70
2022/07/01 12:10:48;;;;;;;1.65;0.70;;;23.70;44.40;;;;;;5048058;28;20037;-68
2022/07/01 12:13:24;;;;;;;2.35;0.73;;;23.70;44.50;;;;;;5042126;28;20033;-69
2022/07/01 12:15:49;;;;;;;4.15;0.90;;;23.80;44.80;;;;;;5047694;28;20021;-69
2022/07/01 12:18:16;;;;;;;2.00;0.80;;;23.90;44.40;;;;;;5050731;28;20025;-70
2022/07/01 12:20:53;;;;;;;2.33;0.75;;;24.00;44.60;;;;;;5051382;28;20040;-69
2022/07/01 12:23:19;;;;;;;1.73;0.70;;;24.20;44.40;;;;;;5044442;28;20037;-70
2022/07/01 12:25:49;;;;;;;3.10;0.80;;;24.20;44.10;;;;;;5043107;28;20024;-69
2022/07/01 12:28:29;;;;;;;2.28;0.63;;;24.10;43.40;;;;;;5044688;28;20041;-68
2022/07/01 12:31:09;;;;;;;1.08;0.68;;;24.20;43.40;;;;;;5043747;28;20017;-69
2022/07/01 12:33:39;;;;;;;2.00;0.80;;;24.20;42.80;;;;;;5041852;28;20037;-69
2022/07/01 12:36:06;;;;;;;2.22;0.90;;;24.20;43.30;;;;;;5044005;28;20021;-68
2022/07/01 12:38:33;;;;;;;2.63;1.02;;;24.40;43.10;;;;;;5041162;28;20041;-68
2022/07/01 12:40:59;;;;;;;2.75;0.80;;;24.30;42.20;;;;;;5047253;28;20029;-69
2022/07/01 12:43:31;;;;;;;2.50;1.05;;;24.20;41.90;;;;;;5044782;28;20029;-69
2022/07/01 12:45:57;;;;;;;;;;;24.40;42.20;;;;;;5044604;28;20040;-69
2022/07/01 12:48:23;;;;;;;1.17;0.60;;;24.60;42.90;;;;;;5046958;28;19952;-68
2022/07/01 12:50:52;;;;;;;1.25;0.80;;;24.80;42.30;;;;;;5042919;28;20110;-69
2022/07/01 12:53:19;;;;;;;2.78;0.80;;;24.60;42.20;;;;;;5042661;28;20078;-70
2022/07/01 12:55:47;;;;;;;3.25;1.00;;;24.60;42.20;;;;;;5043295;28;20020;-69